sensor_id;sensor_type;location;lat;lon;timestamp;temperature;humidity
2839;DHT22;1427;48.510;9.060;2022-07-12T00:01:13;15.20;99.90
2839;DHT22;1427;48.510;9.060;2022-07-12T00:03:41;15.20;99.90
2839;DHT22;1427;48.510;9.060;2022-07-12T00:06:09;15.30;99.90
2839;DHT22;1427;48.510;9.060;2022-07-12T00:08:37;15.40;99.90
2839;DHT22;1427;48.510;9.060;2022-07-12T00:11:05;15.40;99.90
2839;DHT22;1427;48.510;9.060;2022-07-12T00:13:33;15.20;99.90
2839;DHT22;1427;48.510;9.060;2022-07-12T00:16:03;15.10;99.90
2839;DHT22;1427;48.510;9.060;2022-07-12T00:18:31;14.90;99.90
2839;DHT22;1427;48.510;9.060;2022-07-12T00:21:00;14.90;99.90
2839;DHT22;1427;48.510;9.060;2022-07-12T00:23:28;14.90;99.90
2839;DHT22;1427;48.510;9.060;2022-07-12T00:25:56;15.10;99.90
2839;DHT22;1427;48.510;9.060;2022-07-12T00:28:24;15.00;99.90
2839;DHT22;1427;48.510;9.060;2022-07-12T00:30:52;14.90;99.90
2839;DHT22;1427;48.510;9.060;2022-07-12T00:33:21;14.80;99.90
2839;DHT22;1427;48.510;9.060;2022-07-12T00:35:49;14.80;99.90
2839;DHT22;1427;48.510;9.060;2022-07-12T00:38:17;14.70;99.90
2839;DHT22;1427;48.510;9.060;2022-07-12T00:40:45;14.70;99.90
2839;DHT22;1427;48.510;9.060;2022-07-12T00:43:13;14.80;99.90
2839;DHT22;1427;48.510;9.060;2022-07-12T00:45:41;14.70;99.90
2839;DHT22;1427;48.510;9.060;2022-07-12T00:48:10;14.60;99.90
2839;DHT22;1427;48.510;9.060;2022-07-12T00:50:41;14.60;99.90
2839;DHT22;1427;48.510;9.060;2022-07-12T00:53:09;14.60;99.90
2839;DHT22;1427;48.510;9.060;2022-07-12T00:55:37;14.50;99.90
2839;DHT22;1427;48.510;9.060;2022-07-12T00:58:05;14.50;99.90
2839;DHT22;1427;48.510;9.060;2022-07-12T01:00:34;14.50;99.90
2839;DHT22;1427;48.510;9.060;2022-07-12T01:03:02;14.60;99.90
2839;DHT22;1427;48.510;9.060;2022-07-12T01:05:31;14.50;99.90
2839;DHT22;1427;48.510;9.060;2022-07-12T01:08:00;14.40;99.90
2839;DHT22;1427;48.510;9.060;2022-07-12T01:10:30;14.50;99.90
2839;DHT22;1427;48.510;9.060;2022-07-12T01:13:00;14.40;99.90
2839;DHT22;1427;48.510;9.060;2022-07-12T01:15:29;14.40;99.90
2839;DHT22;1427;48.510;9.060;2022-07-12T01:17:57;14.50;99.90
2839;DHT22;1427;48.510;9.060;2022-07-12T01:20:26;14.50;99.90
2839;DHT22;1427;48.510;9.060;2022-07-12T01:22:56;14.60;99.90
2839;DHT22;1427;48.510;9.060;2022-07-12T01:25:25;14.50;99.90
2839;DHT22;1427;48.510;9.060;2022-07-12T01:27:54;14.50;99.90
2839;DHT22;1427;48.510;9.060;2022-07-12T01:30:22;14.40;99.90
2839;DHT22;1427;48.510;9.060;2022-07-12T01:32:51;14.30;99.90
2839;DHT22;1427;48.510;9.060;2022-07-12T01:35:21;14.30;99.90
2839;DHT22;1427;48.510;9.060;2022-07-12T01:37:49;14.40;99.90
2839;DHT22;1427;48.510;9.060;2022-07-12T01:40:18;14.40;99.90
2839;DHT22;1427;48.510;9.060;2022-07-12T01:42:48;14.50;99.90
2839;DHT22;1427;48.510;9.060;2022-07-12T01:45:18;14.40;99.90
2839;DHT22;1427;48.510;9.060;2022-07-12T01:47:46;14.30;99.90
2839;DHT22;1427;48.510;9.060;2022-07-12T01:50:15;14.20;99.90
2839;DHT22;1427;48.510;9.060;2022-07-12T01:52:44;14.20;99.90
2839;DHT22;1427;48.510;9.060;2022-07-12T01:55:12;14.20;99.90
2839;DHT22;1427;48.510;9.060;2022-07-12T01:57:42;14.20;99.90
2839;DHT22;1427;48.510;9.060;2022-07-12T02:00:12;14.30;99.90
2839;DHT22;1427;48.510;9.060;2022-07-12T02:02:41;14.30;99.90
2839;DHT22;1427;48.510;9.060;2022-07-12T02:05:11;14.40;99.90
2839;DHT22;1427;48.510;9.060;2022-07-12T02:07:40;14.40;99.90
2839;DHT22;1427;48.510;9.060;2022-07-12T02:10:09;14.30;99.90
2839;DHT22;1427;48.510;9.060;2022-07-12T02:12:37;14.20;99.90
2839;DHT22;1427;48.510;9.060;2022-07-12T02:15:08;14.10;99.90
2839;DHT22;1427;48.510;9.060;2022-07-12T02:17:36;14.10;99.90
2839;DHT22;1427;48.510;9.060;2022-07-12T02:20:06;14.10;99.90
2839;DHT22;1427;48.510;9.060;2022-07-12T02:22:34;14.00;99.90
2839;DHT22;1427;48.510;9.060;2022-07-12T02:25:02;13.90;99.90
2839;DHT22;1427;48.510;9.060;2022-07-12T02:27:30;13.80;99.90
2839;DHT22;1427;48.510;9.060;2022-07-12T02:29:58;13.80;99.90
2839;DHT22;1427;48.510;9.060;2022-07-12T02:32:27;13.80;99.90
2839;DHT22;1427;48.510;9.060;2022-07-12T02:34:55;13.70;99.90
2839;DHT22;1427;48.510;9.060;2022-07-12T02:37:23;13.90;99.90
2839;DHT22;1427;48.510;9.060;2022-07-12T02:39:51;13.80;99.90
2839;DHT22;1427;48.510;9.060;2022-07-12T02:42:40;13.70;99.90
2839;DHT22;1427;48.510;9.060;2022-07-12T02:45:09;13.80;99.90
2839;DHT22;1427;48.510;9.060;2022-07-12T02:47:39;13.70;99.90
2839;DHT22;1427;48.510;9.060;2022-07-12T02:50:08;13.70;99.90
2839;DHT22;1427;48.510;9.060;2022-07-12T02:52:36;13.60;99.90
2839;DHT22;1427;48.510;9.060;2022-07-12T02:55:05;13.60;99.90
2839;DHT22;1427;48.510;9.060;2022-07-12T02:57:33;13.60;99.90
2839;DHT22;1427;48.510;9.060;2022-07-12T03:00:01;13.50;99.90
2839;DHT22;1427;48.510;9.060;2022-07-12T03:02:29;13.50;99.90
2839;DHT22;1427;48.510;9.060;2022-07-12T03:04:59;13.60;99.90
2839;DHT22;1427;48.510;9.060;2022-07-12T03:07:27;13.60;99.90
2839;DHT22;1427;48.510;9.060;2022-07-12T03:09:55;13.50;99.90
2839;DHT22;1427;48.510;9.060;2022-07-12T03:12:24;13.50;99.90
2839;DHT22;1427;48.510;9.060;2022-07-12T03:14:52;13.40;99.90
2839;DHT22;1427;48.510;9.060;2022-07-12T03:17:21;13.50;99.90
2839;DHT22;1427;48.510;9.060;2022-07-12T03:19:49;13.40;99.90
2839;DHT22;1427;48.510;9.060;2022-07-12T03:22:18;13.40;99.90
2839;DHT22;1427;48.510;9.060;2022-07-12T03:24:46;13.40;99.90
2839;DHT22;1427;48.510;9.060;2022-07-12T03:27:14;13.40;99.90
2839;DHT22;1427;48.510;9.060;2022-07-12T03:29:42;13.40;99.90
2839;DHT22;1427;48.510;9.060;2022-07-12T03:32:10;13.40;99.90
2839;DHT22;1427;48.510;9.060;2022-07-12T03:34:38;13.50;99.90
2839;DHT22;1427;48.510;9.060;2022-07-12T03:37:06;13.50;99.90
2839;DHT22;1427;48.510;9.060;2022-07-12T03:39:36;13.60;99.90
2839;DHT22;1427;48.510;9.060;2022-07-12T03:42:04;13.60;99.90
2839;DHT22;1427;48.510;9.060;2022-07-12T03:44:32;13.60;99.90
2839;DHT22;1427;48.510;9.060;2022-07-12T03:47:00;13.50;99.90
2839;DHT22;1427;48.510;9.060;2022-07-12T03:49:28;13.50;99.90
2839;DHT22;1427;48.510;9.060;2022-07-12T03:51:56;13.50;99.90
2839;DHT22;1427;48.510;9.060;2022-07-12T03:54:24;13.50;99.90
2839;DHT22;1427;48.510;9.060;2022-07-12T03:56:53;13.50;99.90
2839;DHT22;1427;48.510;9.060;2022-07-12T03:59:39;13.50;99.90
2839;DHT22;1427;48.510;9.060;2022-07-12T04:02:08;13.50;99.90
2839;DHT22;1427;48.510;9.060;2022-07-12T04:04:36;13.60;99.90
2839;DHT22;1427;48.510;9.060;2022-07-12T04:07:04;13.50;99.90
2839;DHT22;1427;48.510;9.060;2022-07-12T04:09:33;13.60;99.90
2839;DHT22;1427;48.510;9.060;2022-07-12T04:12:03;13.60;99.90
2839;DHT22;1427;48.510;9.060;2022-07-12T04:14:31;13.70;99.90
2839;DHT22;1427;48.510;9.060;2022-07-12T04:16:59;13.70;99.90
2839;DHT22;1427;48.510;9.060;2022-07-12T04:19:27;13.70;99.90
2839;DHT22;1427;48.510;9.060;2022-07-12T04:21:57;13.80;99.90
2839;DHT22;1427;48.510;9.060;2022-07-12T04:24:26;13.90;99.90
2839;DHT22;1427;48.510;9.060;2022-07-12T04:26:54;13.90;99.90
2839;DHT22;1427;48.510;9.060;2022-07-12T04:29:23;14.00;99.90
2839;DHT22;1427;48.510;9.060;2022-07-12T04:31:51;14.10;99.90
2839;DHT22;1427;48.510;9.060;2022-07-12T04:34:19;14.10;99.90
2839;DHT22;1427;48.510;9.060;2022-07-12T04:36:47;14.10;99.90
2839;DHT22;1427;48.510;9.060;2022-07-12T04:39:15;14.00;99.90
2839;DHT22;1427;48.510;9.060;2022-07-12T04:41:43;14.00;99.90
2839;DHT22;1427;48.510;9.060;2022-07-12T04:44:11;14.10;99.90
2839;DHT22;1427;48.510;9.060;2022-07-12T04:46:41;14.30;99.90
2839;DHT22;1427;48.510;9.060;2022-07-12T04:49:09;14.40;99.90
2839;DHT22;1427;48.510;9.060;2022-07-12T04:51:37;14.40;99.90
2839;DHT22;1427;48.510;9.060;2022-07-12T04:54:05;14.40;99.90
2839;DHT22;1427;48.510;9.060;2022-07-12T04:56:33;14.40;99.90
2839;DHT22;1427;48.510;9.060;2022-07-12T04:59:02;14.60;99.90
2839;DHT22;1427;48.510;9.060;2022-07-12T05:01:30;14.60;99.90
2839;DHT22;1427;48.510;9.060;2022-07-12T05:04:00;14.70;99.90
2839;DHT22;1427;48.510;9.060;2022-07-12T05:06:28;14.70;99.90
2839;DHT22;1427;48.510;9.060;2022-07-12T05:08:56;14.80;99.90
2839;DHT22;1427;48.510;9.060;2022-07-12T05:11:26;14.90;99.90
2839;DHT22;1427;48.510;9.060;2022-07-12T05:13:54;15.10;99.90
2839;DHT22;1427;48.510;9.060;2022-07-12T05:16:22;15.20;99.90
2839;DHT22;1427;48.510;9.060;2022-07-12T05:18:51;15.40;99.90
2839;DHT22;1427;48.510;9.060;2022-07-12T05:21:21;15.50;99.90
2839;DHT22;1427;48.510;9.060;2022-07-12T05:23:49;15.60;99.90
2839;DHT22;1427;48.510;9.060;2022-07-12T05:26:17;15.60;99.90
2839;DHT22;1427;48.510;9.060;2022-07-12T05:28:45;15.60;99.90
2839;DHT22;1427;48.510;9.060;2022-07-12T05:31:13;15.80;99.90
2839;DHT22;1427;48.510;9.060;2022-07-12T05:33:41;15.90;99.90
2839;DHT22;1427;48.510;9.060;2022-07-12T05:36:09;16.10;99.90
2839;DHT22;1427;48.510;9.060;2022-07-12T05:38:39;16.20;99.90
2839;DHT22;1427;48.510;9.060;2022-07-12T05:41:07;16.50;99.90
2839;DHT22;1427;48.510;9.060;2022-07-12T05:43:35;16.60;99.90
2839;DHT22;1427;48.510;9.060;2022-07-12T05:46:03;16.60;99.90
2839;DHT22;1427;48.510;9.060;2022-07-12T05:48:32;16.60;99.90
2839;DHT22;1427;48.510;9.060;2022-07-12T05:51:00;16.70;99.90
2839;DHT22;1427;48.510;9.060;2022-07-12T05:53:49;16.80;99.90
2839;DHT22;1427;48.510;9.060;2022-07-12T05:56:17;17.00;99.90
2839;DHT22;1427;48.510;9.060;2022-07-12T05:58:45;17.20;99.90
2839;DHT22;1427;48.510;9.060;2022-07-12T06:01:13;17.40;99.90
2839;DHT22;1427;48.510;9.060;2022-07-12T06:03:41;17.40;99.90
2839;DHT22;1427;48.510;9.060;2022-07-12T06:06:09;17.60;99.90
2839;DHT22;1427;48.510;9.060;2022-07-12T06:08:37;17.90;99.90
2839;DHT22;1427;48.510;9.060;2022-07-12T06:11:06;18.10;99.90
2839;DHT22;1427;48.510;9.060;2022-07-12T06:13:34;18.20;99.90
2839;DHT22;1427;48.510;9.060;2022-07-12T06:16:02;18.10;99.90
2839;DHT22;1427;48.510;9.060;2022-07-12T06:18:34;18.00;99.90
2839;DHT22;1427;48.510;9.060;2022-07-12T06:21:02;18.20;99.90
2839;DHT22;1427;48.510;9.060;2022-07-12T06:23:30;18.40;99.90
2839;DHT22;1427;48.510;9.060;2022-07-12T06:25:58;18.50;99.90
2839;DHT22;1427;48.510;9.060;2022-07-12T06:28:28;18.40;99.90
2839;DHT22;1427;48.510;9.060;2022-07-12T06:30:56;18.50;99.90
2839;DHT22;1427;48.510;9.060;2022-07-12T06:33:24;18.40;99.90
2839;DHT22;1427;48.510;9.060;2022-07-12T06:35:52;18.60;99.90
2839;DHT22;1427;48.510;9.060;2022-07-12T06:38:20;18.80;99.90
2839;DHT22;1427;48.510;9.060;2022-07-12T06:40:48;18.80;99.90
2839;DHT22;1427;48.510;9.060;2022-07-12T06:43:16;18.80;99.90
2839;DHT22;1427;48.510;9.060;2022-07-12T06:45:45;18.70;99.90
2839;DHT22;1427;48.510;9.060;2022-07-12T06:48:13;18.80;99.90
2839;DHT22;1427;48.510;9.060;2022-07-12T06:50:41;19.10;99.90
2839;DHT22;1427;48.510;9.060;2022-07-12T06:53:11;19.40;99.90
2839;DHT22;1427;48.510;9.060;2022-07-12T06:55:39;19.60;99.90
2839;DHT22;1427;48.510;9.060;2022-07-12T06:58:07;19.30;99.90
2839;DHT22;1427;48.510;9.060;2022-07-12T07:00:35;19.50;99.90
2839;DHT22;1427;48.510;9.060;2022-07-12T07:03:06;19.70;99.90
2839;DHT22;1427;48.510;9.060;2022-07-12T07:05:35;19.80;99.90
2839;DHT22;1427;48.510;9.060;2022-07-12T07:08:04;20.00;99.90
2839;DHT22;1427;48.510;9.060;2022-07-12T07:10:36;20.20;99.90
2839;DHT22;1427;48.510;9.060;2022-07-12T07:13:04;20.40;99.90
2839;DHT22;1427;48.510;9.060;2022-07-12T07:15:32;20.50;99.90
2839;DHT22;1427;48.510;9.060;2022-07-12T07:18:00;20.60;99.90
2839;DHT22;1427;48.510;9.060;2022-07-12T07:20:29;20.90;99.90
2839;DHT22;1427;48.510;9.060;2022-07-12T07:22:57;21.10;99.90
2839;DHT22;1427;48.510;9.060;2022-07-12T07:25:25;21.30;99.90
2839;DHT22;1427;48.510;9.060;2022-07-12T07:27:53;21.60;99.90
2839;DHT22;1427;48.510;9.060;2022-07-12T07:30:21;21.70;99.60
2839;DHT22;1427;48.510;9.060;2022-07-12T07:33:07;22.10;99.60
2839;DHT22;1427;48.510;9.060;2022-07-12T07:35:36;22.40;98.90
2839;DHT22;1427;48.510;9.060;2022-07-12T07:38:05;22.50;98.20
2839;DHT22;1427;48.510;9.060;2022-07-12T07:40:33;22.30;98.30
2839;DHT22;1427;48.510;9.060;2022-07-12T07:43:01;21.90;98.80
2839;DHT22;1427;48.510;9.060;2022-07-12T07:45:29;22.00;98.50
2839;DHT22;1427;48.510;9.060;2022-07-12T07:47:57;22.10;98.70
2839;DHT22;1427;48.510;9.060;2022-07-12T07:50:46;22.30;98.80
2839;DHT22;1427;48.510;9.060;2022-07-12T07:53:14;22.50;98.30
2839;DHT22;1427;48.510;9.060;2022-07-12T07:55:42;22.60;98.10
2839;DHT22;1427;48.510;9.060;2022-07-12T07:58:10;22.80;98.20
2839;DHT22;1427;48.510;9.060;2022-07-12T08:00:39;23.10;97.50
2839;DHT22;1427;48.510;9.060;2022-07-12T08:03:08;23.20;97.00
2839;DHT22;1427;48.510;9.060;2022-07-12T08:05:36;23.30;97.40
2839;DHT22;1427;48.510;9.060;2022-07-12T08:08:06;23.40;97.70
2839;DHT22;1427;48.510;9.060;2022-07-12T08:10:34;23.70;96.60
2839;DHT22;1427;48.510;9.060;2022-07-12T08:13:02;23.50;96.80
2839;DHT22;1427;48.510;9.060;2022-07-12T08:15:30;23.70;97.70
2839;DHT22;1427;48.510;9.060;2022-07-12T08:17:58;23.50;96.00
2839;DHT22;1427;48.510;9.060;2022-07-12T08:20:27;23.30;96.00
2839;DHT22;1427;48.510;9.060;2022-07-12T08:23:15;23.50;96.80
2839;DHT22;1427;48.510;9.060;2022-07-12T08:25:43;23.70;97.70
2839;DHT22;1427;48.510;9.060;2022-07-12T08:28:11;23.90;96.70
2839;DHT22;1427;48.510;9.060;2022-07-12T08:30:39;24.10;96.00
2839;DHT22;1427;48.510;9.060;2022-07-12T08:33:13;24.20;95.30
2839;DHT22;1427;48.510;9.060;2022-07-12T08:35:41;24.50;94.60
2839;DHT22;1427;48.510;9.060;2022-07-12T08:38:10;24.50;94.90
2839;DHT22;1427;48.510;9.060;2022-07-12T08:40:40;24.60;95.00
2839;DHT22;1427;48.510;9.060;2022-07-12T08:43:08;24.80;95.50
2839;DHT22;1427;48.510;9.060;2022-07-12T08:45:36;25.00;95.30
2839;DHT22;1427;48.510;9.060;2022-07-12T08:48:04;25.20;95.20
2839;DHT22;1427;48.510;9.060;2022-07-12T08:50:34;25.20;93.70
2839;DHT22;1427;48.510;9.060;2022-07-12T08:53:10;25.10;93.70
2839;DHT22;1427;48.510;9.060;2022-07-12T08:55:40;25.10;95.00
2839;DHT22;1427;48.510;9.060;2022-07-12T08:58:15;25.20;94.60
2839;DHT22;1427;48.510;9.060;2022-07-12T09:00:45;25.40;94.10
2839;DHT22;1427;48.510;9.060;2022-07-12T09:03:16;25.60;94.40
2839;DHT22;1427;48.510;9.060;2022-07-12T09:05:49;25.90;93.90
2839;DHT22;1427;48.510;9.060;2022-07-12T09:08:18;26.10;93.30
2839;DHT22;1427;48.510;9.060;2022-07-12T09:10:54;26.40;93.40
2839;DHT22;1427;48.510;9.060;2022-07-12T09:13:48;26.20;91.00
2839;DHT22;1427;48.510;9.060;2022-07-12T09:16:18;24.90;92.10
2839;DHT22;1427;48.510;9.060;2022-07-12T09:18:47;24.90;93.70
2839;DHT22;1427;48.510;9.060;2022-07-12T09:21:26;24.90;93.60
2839;DHT22;1427;48.510;9.060;2022-07-12T09:23:55;25.00;93.20
2839;DHT22;1427;48.510;9.060;2022-07-12T09:26:29;25.00;92.90
2839;DHT22;1427;48.510;9.060;2022-07-12T09:29:05;25.30;93.20
2839;DHT22;1427;48.510;9.060;2022-07-12T09:31:41;25.70;93.60
2839;DHT22;1427;48.510;9.060;2022-07-12T09:34:30;26.00;92.50
2839;DHT22;1427;48.510;9.060;2022-07-12T09:37:15;26.60;92.90
2839;DHT22;1427;48.510;9.060;2022-07-12T09:39:44;26.80;91.60
2839;DHT22;1427;48.510;9.060;2022-07-12T09:42:13;26.90;91.10
2839;DHT22;1427;48.510;9.060;2022-07-12T09:44:42;27.10;91.00
2839;DHT22;1427;48.510;9.060;2022-07-12T09:47:11;27.20;90.80
2839;DHT22;1427;48.510;9.060;2022-07-12T09:49:40;27.40;90.90
2839;DHT22;1427;48.510;9.060;2022-07-12T09:52:11;27.60;89.80
2839;DHT22;1427;48.510;9.060;2022-07-12T09:54:41;27.70;90.00
2839;DHT22;1427;48.510;9.060;2022-07-12T09:57:19;27.80;88.90
2839;DHT22;1427;48.510;9.060;2022-07-12T09:59:48;27.90;87.70
2839;DHT22;1427;48.510;9.060;2022-07-12T10:02:18;27.90;87.00
2839;DHT22;1427;48.510;9.060;2022-07-12T10:04:47;27.90;86.70
2839;DHT22;1427;48.510;9.060;2022-07-12T10:07:15;27.90;85.90
2839;DHT22;1427;48.510;9.060;2022-07-12T10:09:46;27.80;84.10
2839;DHT22;1427;48.510;9.060;2022-07-12T10:12:16;27.40;83.90
2839;DHT22;1427;48.510;9.060;2022-07-12T10:14:50;27.10;86.60
2839;DHT22;1427;48.510;9.060;2022-07-12T10:17:21;27.00;88.00
2839;DHT22;1427;48.510;9.060;2022-07-12T10:20:14;27.00;85.40
2839;DHT22;1427;48.510;9.060;2022-07-12T10:22:42;26.60;84.80
2839;DHT22;1427;48.510;9.060;2022-07-12T10:25:31;26.30;86.80
2839;DHT22;1427;48.510;9.060;2022-07-12T10:27:59;25.50;86.90
2839;DHT22;1427;48.510;9.060;2022-07-12T10:30:30;25.60;90.10
2839;DHT22;1427;48.510;9.060;2022-07-12T10:32:59;25.90;87.30
2839;DHT22;1427;48.510;9.060;2022-07-12T10:35:28;25.90;86.40
2839;DHT22;1427;48.510;9.060;2022-07-12T10:38:16;25.90;87.00
2839;DHT22;1427;48.510;9.060;2022-07-12T10:40:46;26.10;89.50
2839;DHT22;1427;48.510;9.060;2022-07-12T10:43:25;26.70;88.50
2839;DHT22;1427;48.510;9.060;2022-07-12T10:46:18;26.80;88.20
2839;DHT22;1427;48.510;9.060;2022-07-12T10:48:48;26.90;89.50
2839;DHT22;1427;48.510;9.060;2022-07-12T10:51:17;27.10;87.60
2839;DHT22;1427;48.510;9.060;2022-07-12T10:53:47;27.20;87.50
2839;DHT22;1427;48.510;9.060;2022-07-12T10:56:21;27.00;85.10
2839;DHT22;1427;48.510;9.060;2022-07-12T10:58:57;26.90;85.80
2839;DHT22;1427;48.510;9.060;2022-07-12T11:01:28;26.90;84.00
2839;DHT22;1427;48.510;9.060;2022-07-12T11:04:04;26.70;85.90
2839;DHT22;1427;48.510;9.060;2022-07-12T11:06:35;26.80;85.10
2839;DHT22;1427;48.510;9.060;2022-07-12T11:09:05;27.00;87.70
2839;DHT22;1427;48.510;9.060;2022-07-12T11:11:39;27.30;88.30
2839;DHT22;1427;48.510;9.060;2022-07-12T11:14:07;27.00;82.20
2839;DHT22;1427;48.510;9.060;2022-07-12T11:16:43;26.60;85.10
2839;DHT22;1427;48.510;9.060;2022-07-12T11:19:11;26.80;85.90
2839;DHT22;1427;48.510;9.060;2022-07-12T11:21:43;26.00;83.60
2839;DHT22;1427;48.510;9.060;2022-07-12T11:24:17;25.10;86.70
2839;DHT22;1427;48.510;9.060;2022-07-12T11:26:46;25.40;88.80
2839;DHT22;1427;48.510;9.060;2022-07-12T11:29:15;26.00;87.70
2839;DHT22;1427;48.510;9.060;2022-07-12T11:31:45;26.20;87.60
2839;DHT22;1427;48.510;9.060;2022-07-12T11:34:23;26.50;88.40
2839;DHT22;1427;48.510;9.060;2022-07-12T11:36:53;26.60;87.20
2839;DHT22;1427;48.510;9.060;2022-07-12T11:39:32;26.10;85.10
2839;DHT22;1427;48.510;9.060;2022-07-12T11:42:00;25.90;86.00
2839;DHT22;1427;48.510;9.060;2022-07-12T11:44:42;25.80;84.10
2839;DHT22;1427;48.510;9.060;2022-07-12T11:47:11;25.50;84.70
2839;DHT22;1427;48.510;9.060;2022-07-12T11:49:42;25.70;86.20
2839;DHT22;1427;48.510;9.060;2022-07-12T11:52:13;25.80;84.90
2839;DHT22;1427;48.510;9.060;2022-07-12T11:54:42;25.70;85.90
2839;DHT22;1427;48.510;9.060;2022-07-12T11:57:11;25.70;85.60
2839;DHT22;1427;48.510;9.060;2022-07-12T11:59:39;25.70;86.00
2839;DHT22;1427;48.510;9.060;2022-07-12T12:02:08;26.10;89.60
2839;DHT22;1427;48.510;9.060;2022-07-12T12:04:48;26.00;85.80
2839;DHT22;1427;48.510;9.060;2022-07-12T12:07:18;26.40;88.70
2839;DHT22;1427;48.510;9.060;2022-07-12T12:10:02;26.90;88.00
2839;DHT22;1427;48.510;9.060;2022-07-12T12:12:38;27.10;87.20
2839;DHT22;1427;48.510;9.060;2022-07-12T12:15:10;27.30;85.30
2839;DHT22;1427;48.510;9.060;2022-07-12T12:17:45;27.50;86.10
2839;DHT22;1427;48.510;9.060;2022-07-12T12:20:17;27.50;83.60
2839;DHT22;1427;48.510;9.060;2022-07-12T12:22:47;27.40;85.00
2839;DHT22;1427;48.510;9.060;2022-07-12T12:25:16;27.00;81.80
2839;DHT22;1427;48.510;9.060;2022-07-12T12:27:45;26.90;84.20
2839;DHT22;1427;48.510;9.060;2022-07-12T12:30:35;27.20;84.90
2839;DHT22;1427;48.510;9.060;2022-07-12T12:33:04;27.40;83.90
2839;DHT22;1427;48.510;9.060;2022-07-12T12:35:36;27.50;82.50
2839;DHT22;1427;48.510;9.060;2022-07-12T12:38:11;27.50;81.20
2839;DHT22;1427;48.510;9.060;2022-07-12T12:40:40;27.40;83.20
2839;DHT22;1427;48.510;9.060;2022-07-12T12:43:10;27.40;84.30
2839;DHT22;1427;48.510;9.060;2022-07-12T12:45:49;27.50;83.90
2839;DHT22;1427;48.510;9.060;2022-07-12T12:48:18;27.50;84.00
2839;DHT22;1427;48.510;9.060;2022-07-12T12:50:49;27.60;85.10
2839;DHT22;1427;48.510;9.060;2022-07-12T12:53:19;27.70;83.30
2839;DHT22;1427;48.510;9.060;2022-07-12T12:55:49;27.80;82.30
2839;DHT22;1427;48.510;9.060;2022-07-12T12:58:18;27.80;79.00
2839;DHT22;1427;48.510;9.060;2022-07-12T13:00:49;27.70;79.00
2839;DHT22;1427;48.510;9.060;2022-07-12T13:03:19;27.00;80.10
2839;DHT22;1427;48.510;9.060;2022-07-12T13:05:49;26.70;82.90
2839;DHT22;1427;48.510;9.060;2022-07-12T13:08:17;26.80;83.30
2839;DHT22;1427;48.510;9.060;2022-07-12T13:10:46;27.10;83.30
2839;DHT22;1427;48.510;9.060;2022-07-12T13:13:15;27.30;83.30
2839;DHT22;1427;48.510;9.060;2022-07-12T13:15:45;27.40;80.30
2839;DHT22;1427;48.510;9.060;2022-07-12T13:18:13;27.60;78.40
2839;DHT22;1427;48.510;9.060;2022-07-12T13:20:42;27.40;79.60
2839;DHT22;1427;48.510;9.060;2022-07-12T13:23:11;27.30;82.40
2839;DHT22;1427;48.510;9.060;2022-07-12T13:25:39;27.40;81.30
2839;DHT22;1427;48.510;9.060;2022-07-12T13:28:08;27.40;80.20
2839;DHT22;1427;48.510;9.060;2022-07-12T13:30:38;27.50;82.20
2839;DHT22;1427;48.510;9.060;2022-07-12T13:33:06;27.50;80.90
2839;DHT22;1427;48.510;9.060;2022-07-12T13:35:34;27.50;81.40
2839;DHT22;1427;48.510;9.060;2022-07-12T13:38:02;27.60;81.30
2839;DHT22;1427;48.510;9.060;2022-07-12T13:40:32;27.80;82.20
2839;DHT22;1427;48.510;9.060;2022-07-12T13:43:00;27.80;79.70
2839;DHT22;1427;48.510;9.060;2022-07-12T13:45:30;27.80;79.80
2839;DHT22;1427;48.510;9.060;2022-07-12T13:48:00;27.80;79.80
2839;DHT22;1427;48.510;9.060;2022-07-12T13:50:29;27.70;79.00
2839;DHT22;1427;48.510;9.060;2022-07-12T13:52:58;27.80;80.00
2839;DHT22;1427;48.510;9.060;2022-07-12T13:55:28;27.90;79.30
2839;DHT22;1427;48.510;9.060;2022-07-12T13:57:59;27.90;80.90
2839;DHT22;1427;48.510;9.060;2022-07-12T14:00:27;28.00;79.30
2839;DHT22;1427;48.510;9.060;2022-07-12T14:02:55;28.00;78.30
2839;DHT22;1427;48.510;9.060;2022-07-12T14:05:24;27.90;77.10
2839;DHT22;1427;48.510;9.060;2022-07-12T14:07:52;27.40;79.10
2839;DHT22;1427;48.510;9.060;2022-07-12T14:10:21;27.20;78.30
2839;DHT22;1427;48.510;9.060;2022-07-12T14:12:49;27.20;77.20
2839;DHT22;1427;48.510;9.060;2022-07-12T14:15:19;27.30;78.00
2839;DHT22;1427;48.510;9.060;2022-07-12T14:18:04;27.20;77.80
2839;DHT22;1427;48.510;9.060;2022-07-12T14:20:34;27.30;79.20
2839;DHT22;1427;48.510;9.060;2022-07-12T14:23:04;27.50;78.90
2839;DHT22;1427;48.510;9.060;2022-07-12T14:25:33;27.40;79.50
2839;DHT22;1427;48.510;9.060;2022-07-12T14:28:01;27.50;80.00
2839;DHT22;1427;48.510;9.060;2022-07-12T14:30:30;27.60;77.70
2839;DHT22;1427;48.510;9.060;2022-07-12T14:32:58;27.70;79.60
2839;DHT22;1427;48.510;9.060;2022-07-12T14:35:27;27.60;77.80
2839;DHT22;1427;48.510;9.060;2022-07-12T14:37:55;27.70;78.80
2839;DHT22;1427;48.510;9.060;2022-07-12T14:40:23;27.70;77.00
2839;DHT22;1427;48.510;9.060;2022-07-12T14:42:51;27.60;77.80
2839;DHT22;1427;48.510;9.060;2022-07-12T14:45:23;27.60;78.40
2839;DHT22;1427;48.510;9.060;2022-07-12T14:47:53;27.60;77.90
2839;DHT22;1427;48.510;9.060;2022-07-12T14:50:21;27.50;77.60
2839;DHT22;1427;48.510;9.060;2022-07-12T14:52:49;27.50;78.10
2839;DHT22;1427;48.510;9.060;2022-07-12T14:55:18;27.40;77.40
2839;DHT22;1427;48.510;9.060;2022-07-12T14:57:46;27.30;76.30
2839;DHT22;1427;48.510;9.060;2022-07-12T15:00:14;27.30;75.40
2839;DHT22;1427;48.510;9.060;2022-07-12T15:02:42;27.30;78.10
2839;DHT22;1427;48.510;9.060;2022-07-12T15:05:19;27.50;77.90
2839;DHT22;1427;48.510;9.060;2022-07-12T15:07:47;27.50;77.50
2839;DHT22;1427;48.510;9.060;2022-07-12T15:10:15;27.50;76.30
2839;DHT22;1427;48.510;9.060;2022-07-12T15:12:43;27.40;77.00
2839;DHT22;1427;48.510;9.060;2022-07-12T15:15:12;27.40;76.60
2839;DHT22;1427;48.510;9.060;2022-07-12T15:17:39;27.40;78.50
2839;DHT22;1427;48.510;9.060;2022-07-12T15:20:08;27.30;75.30
2839;DHT22;1427;48.510;9.060;2022-07-12T15:22:37;27.30;77.60
2839;DHT22;1427;48.510;9.060;2022-07-12T15:25:06;27.40;78.00
2839;DHT22;1427;48.510;9.060;2022-07-12T15:27:34;27.40;76.60
2839;DHT22;1427;48.510;9.060;2022-07-12T15:30:02;27.50;75.10
2839;DHT22;1427;48.510;9.060;2022-07-12T15:32:31;27.50;74.40
2839;DHT22;1427;48.510;9.060;2022-07-12T15:35:03;27.40;75.90
2839;DHT22;1427;48.510;9.060;2022-07-12T15:37:32;27.30;76.10
2839;DHT22;1427;48.510;9.060;2022-07-12T15:40:01;27.40;74.50
2839;DHT22;1427;48.510;9.060;2022-07-12T15:42:29;27.30;74.90
2839;DHT22;1427;48.510;9.060;2022-07-12T15:44:59;27.30;75.10
2839;DHT22;1427;48.510;9.060;2022-07-12T15:47:27;27.20;76.30
2839;DHT22;1427;48.510;9.060;2022-07-12T15:49:56;27.10;77.20
2839;DHT22;1427;48.510;9.060;2022-07-12T15:52:24;27.00;75.10
2839;DHT22;1427;48.510;9.060;2022-07-12T15:55:13;27.00;76.00
2839;DHT22;1427;48.510;9.060;2022-07-12T15:57:41;27.20;76.20
2839;DHT22;1427;48.510;9.060;2022-07-12T16:00:10;27.10;75.60
2839;DHT22;1427;48.510;9.060;2022-07-12T16:02:38;27.10;73.90
2839;DHT22;1427;48.510;9.060;2022-07-12T16:05:07;27.10;75.50
2839;DHT22;1427;48.510;9.060;2022-07-12T16:07:37;27.00;74.50
2839;DHT22;1427;48.510;9.060;2022-07-12T16:10:06;26.90;75.30
2839;DHT22;1427;48.510;9.060;2022-07-12T16:12:35;26.90;74.80
2839;DHT22;1427;48.510;9.060;2022-07-12T16:15:06;27.00;75.10
2839;DHT22;1427;48.510;9.060;2022-07-12T16:17:34;26.90;75.70
2839;DHT22;1427;48.510;9.060;2022-07-12T16:20:04;27.00;75.50